createdAt,value
2022-10-23T00:01:59.364Z,101375.44
2022-10-23T00:04:28.637Z,101378.41
2022-10-23T00:06:57.906Z,101378.50
2022-10-23T00:09:27.634Z,101356.09
2022-10-23T00:11:56.878Z,101357.03
2022-10-23T00:14:27.472Z,101355.78
2022-10-23T00:16:56.853Z,101362.59
2022-10-23T00:19:26.274Z,101349.38
2022-10-23T00:21:55.602Z,101356.00
2022-10-23T00:24:24.874Z,101343.00
2022-10-23T00:26:54.139Z,101343.00
2022-10-23T00:29:24.265Z,101338.13
2022-10-23T00:31:53.574Z,101348.66
2022-10-23T00:34:23.023Z,101351.19
2022-10-23T00:36:52.266Z,101351.34
2022-10-23T00:39:21.532Z,101350.56
2022-10-23T00:41:50.808Z,101336.69
2022-10-23T00:44:20.037Z,101344.72
2022-10-23T00:46:49.486Z,101343.53
2022-10-23T00:49:20.476Z,101351.44
2022-10-23T00:51:54.227Z,101345.63
2022-10-23T00:54:27.971Z,101338.22
2022-10-23T00:57:00.898Z,101336.72
2022-10-23T00:59:31.347Z,101347.38
2022-10-23T01:02:01.419Z,101328.06
2022-10-23T01:04:31.808Z,101325.59
2022-10-23T01:07:17.967Z,101332.72
2022-10-23T01:10:07.023Z,101331.38
2022-10-23T01:13:15.393Z,101330.09
2022-10-23T01:15:55.122Z,101344.75
2022-10-23T01:18:38.933Z,101341.13
2022-10-23T01:21:21.326Z,101341.84
2022-10-23T01:23:56.797Z,101335.47
2022-10-23T01:26:40.652Z,101330.25
2022-10-23T01:29:36.029Z,101325.31
2022-10-23T01:32:12.311Z,101316.28
2022-10-23T01:34:53.190Z,101300.59
2022-10-23T01:37:29.566Z,101315.41
2022-10-23T01:40:06.434Z,101311.00
2022-10-23T01:42:42.568Z,101308.44
2022-10-23T01:45:22.280Z,101307.72
2022-10-23T01:47:53.715Z,101310.81
2022-10-23T01:50:26.107Z,101312.78
2022-10-23T01:53:02.789Z,101303.91
2022-10-23T01:55:35.607Z,101315.97
2022-10-23T01:58:09.339Z,101303.06
2022-10-23T02:00:45.295Z,101303.41
2022-10-23T02:03:18.889Z,101297.31
2022-10-23T02:05:48.572Z,101292.78
2022-10-23T02:08:18.318Z,101284.63
2022-10-23T02:10:55.892Z,101275.78
2022-10-23T02:13:39.189Z,101281.09
2022-10-23T02:16:21.991Z,101285.63
2022-10-23T02:19:01.995Z,101281.63
2022-10-23T02:21:41.114Z,101279.16
2022-10-23T02:24:14.369Z,101286.06
2022-10-23T02:27:00.974Z,101280.41
2022-10-23T02:29:36.308Z,101281.63
2022-10-23T02:32:05.856Z,101280.41
2022-10-23T02:34:35.467Z,101280.41
2022-10-23T02:37:05.877Z,101273.13
2022-10-23T02:39:36.326Z,101286.91
2022-10-23T02:42:12.072Z,101286.06
2022-10-23T02:45:16.489Z,101286.91
2022-10-23T02:48:02.621Z,101280.47
2022-10-23T02:50:41.120Z,101278.44
2022-10-23T02:53:33.701Z,101277.38
2022-10-23T02:56:24.136Z,101271.72
2022-10-23T02:59:13.316Z,101270.81
2022-10-23T03:01:54.815Z,101256.13
2022-10-23T03:04:27.839Z,101240.38
2022-10-23T03:06:58.251Z,101236.31
2022-10-23T03:09:29.853Z,101222.16
2022-10-23T03:11:59.513Z,101203.56
2022-10-23T03:14:29.108Z,101216.47
2022-10-23T03:17:01.105Z,101209.25
2022-10-23T03:19:30.649Z,101214.00
2022-10-23T03:22:01.417Z,101212.34
2022-10-23T03:24:31.010Z,101209.06
2022-10-23T03:27:00.601Z,101205.88
2022-10-23T03:29:34.641Z,101209.41
2022-10-23T03:32:04.056Z,101210.56
2022-10-23T03:34:33.499Z,101200.84
2022-10-23T03:37:05.775Z,101199.13
2022-10-23T03:39:35.370Z,101192.25
2022-10-23T03:42:04.821Z,101187.03
2022-10-23T03:44:34.519Z,101191.00
2022-10-23T03:47:04.853Z,101180.56
2022-10-23T03:49:34.383Z,101185.41
2022-10-23T03:52:08.782Z,101179.31
2022-10-23T03:54:38.207Z,101182.03
2022-10-23T03:57:07.491Z,101165.41
2022-10-23T03:59:36.805Z,101163.38
2022-10-23T04:02:08.564Z,101163.38
2022-10-23T04:04:37.979Z,101158.97
2022-10-23T04:07:07.331Z,101164.19
2022-10-23T04:09:36.785Z,101158.41
2022-10-23T04:12:06.830Z,101151.16
2022-10-23T04:14:36.202Z,101159.56
2022-10-23T04:17:05.977Z,101155.03
2022-10-23T04:19:36.823Z,101155.75
2022-10-23T04:22:06.642Z,101151.66
2022-10-23T04:24:36.378Z,101147.59
2022-10-23T04:27:05.822Z,101138.56
2022-10-23T04:29:35.210Z,101133.25
2022-10-23T04:32:05.077Z,101125.63
2022-10-23T04:34:34.422Z,101131.47
2022-10-23T04:37:04.740Z,101127.72
2022-10-23T04:39:34.047Z,101134.28
2022-10-23T04:42:03.364Z,101127.81
2022-10-23T04:44:32.647Z,101130.56
2022-10-23T04:47:01.960Z,101119.31
2022-10-23T04:49:31.427Z,101123.13
2022-10-23T04:52:15.676Z,101115.47
2022-10-23T04:54:54.978Z,101118.50
2022-10-23T04:57:34.486Z,101113.63
2022-10-23T05:00:09.349Z,101120.56
2022-10-23T05:02:46.215Z,101124.16
2022-10-23T05:05:17.861Z,101128.59
2022-10-23T05:08:04.976Z,101123.19
2022-10-23T05:10:53.696Z,101129.53
2022-10-23T05:13:23.919Z,101118.97
2022-10-23T05:15:54.622Z,101116.28
2022-10-23T05:18:32.848Z,101114.59
2022-10-23T05:21:08.541Z,101119.47
2022-10-23T05:23:40.044Z,101089.53
2022-10-23T05:26:09.372Z,101096.22
2022-10-23T05:28:40.260Z,101085.09
2022-10-23T05:31:15.332Z,101095.00
2022-10-23T05:33:48.296Z,101094.06
2022-10-23T05:36:18.475Z,101091.25
2022-10-23T05:38:49.226Z,101088.75
2022-10-23T05:41:20.651Z,101085.00
2022-10-23T05:43:50.587Z,101085.00
2022-10-23T05:46:44.462Z,101086.63
2022-10-23T05:49:16.637Z,101089.69
2022-10-23T05:52:04.376Z,101084.44
2022-10-23T05:54:45.482Z,101079.00
2022-10-23T05:57:39.058Z,101074.81
2022-10-23T06:00:12.463Z,101070.06
2022-10-23T06:02:44.445Z,101074.13
2022-10-23T06:05:27.293Z,101071.97
2022-10-23T06:08:15.718Z,101068.81
2022-10-23T06:10:45.077Z,101070.72
2022-10-23T06:13:14.996Z,101060.19
2022-10-23T06:15:44.422Z,101057.78
2022-10-23T06:18:21.590Z,101056.22
2022-10-23T06:21:03.793Z,101067.56
2022-10-23T06:23:35.032Z,101048.38
2022-10-23T06:26:22.509Z,101045.53
2022-10-23T06:28:59.888Z,101047.47
2022-10-23T06:31:29.887Z,101037.25
2022-10-23T06:34:02.351Z,101044.53
2022-10-23T06:36:33.399Z,101039.63
2022-10-23T06:39:13.063Z,101052.59
2022-10-23T06:42:09.061Z,101049.75
2022-10-23T06:44:56.282Z,101062.31
2022-10-23T06:47:48.507Z,101054.84
2022-10-23T06:50:36.343Z,101040.53
2022-10-23T06:53:09.742Z,101041.69
2022-10-23T06:55:42.626Z,101042.03
2022-10-23T06:58:13.250Z,101044.41
2022-10-23T07:01:04.340Z,101028.81
2022-10-23T07:03:34.418Z,101034.84
2022-10-23T07:06:08.646Z,101032.34
2022-10-23T07:08:38.899Z,101033.84
2022-10-23T07:11:22.635Z,101033.38
2022-10-23T07:13:52.028Z,101027.09
2022-10-23T07:16:25.440Z,101020.50
2022-10-23T07:19:01.199Z,101025.28
2022-10-23T07:21:38.383Z,101038.22
2022-10-23T07:24:23.230Z,101028.38
2022-10-23T07:26:52.781Z,101031.44
2022-10-23T07:29:22.316Z,101028.34
2022-10-23T07:31:51.930Z,101028.69
2022-10-23T07:34:44.415Z,101022.75
2022-10-23T07:37:24.702Z,101023.06
2022-10-23T07:39:54.187Z,101016.00
2022-10-23T07:42:23.531Z,101009.72
2022-10-23T07:44:53.115Z,101011.53
2022-10-23T07:47:22.487Z,101013.09
2022-10-23T07:49:53.892Z,101006.63
2022-10-23T07:52:23.180Z,101003.22
2022-10-23T07:55:18.756Z,100984.44
2022-10-23T07:58:05.514Z,100988.13
2022-10-23T08:00:45.700Z,100994.34
2022-10-23T08:03:26.368Z,100993.88
2022-10-23T08:05:57.329Z,100988.06
2022-10-23T08:08:28.027Z,100981.78
2022-10-23T08:11:03.650Z,100987.84
2022-10-23T08:13:41.452Z,100988.84
2022-10-23T08:16:10.951Z,100987.09
2022-10-23T08:18:58.720Z,100988.41
2022-10-23T08:21:28.099Z,100989.44
2022-10-23T08:24:00.026Z,100992.47
2022-10-23T08:26:31.623Z,100986.44
2022-10-23T08:29:02.545Z,100989.66
2022-10-23T08:31:32.383Z,100975.63
2022-10-23T08:34:18.858Z,100972.00
2022-10-23T08:36:50.444Z,100970.75
2022-10-23T08:39:20.552Z,100973.31
2022-10-23T08:42:03.875Z,100977.47
2022-10-23T08:44:39.344Z,100965.44
2022-10-23T08:47:20.595Z,100975.28
2022-10-23T08:50:31.588Z,100971.94
2022-10-23T08:53:26.611Z,100962.63
2022-10-23T08:56:07.881Z,100961.69
2022-10-23T08:58:46.228Z,100956.63
2022-10-23T09:01:41.429Z,100957.91
2022-10-23T09:04:14.786Z,100948.88
2022-10-23T09:07:06.350Z,100940.69
2022-10-23T09:09:54.392Z,100957.31
2022-10-23T09:12:26.218Z,100961.13
2022-10-23T09:15:35.003Z,100952.41
2022-10-23T09:18:15.005Z,100952.41
2022-10-23T09:20:46.752Z,100950.03
2022-10-23T09:23:27.211Z,100934.81
2022-10-23T09:25:58.132Z,100929.44
2022-10-23T09:28:30.862Z,100913.91
2022-10-23T09:31:15.177Z,100907.25
2022-10-23T09:33:44.543Z,100894.91
2022-10-23T09:36:13.958Z,100894.09
2022-10-23T09:38:49.340Z,100901.88
2022-10-23T09:41:39.472Z,100868.31
2022-10-23T09:44:20.417Z,100899.59
2022-10-23T09:49:43.354Z,100896.88
2022-10-23T09:52:12.646Z,100898.94
2022-10-23T09:55:03.060Z,100892.09
2022-10-23T09:57:45.808Z,100891.25
2022-10-23T10:00:16.768Z,100883.31
2022-10-23T10:02:59.625Z,100880.31
2022-10-23T10:05:38.983Z,100885.72
2022-10-23T10:08:38.729Z,100888.38
2022-10-23T10:11:23.201Z,100883.97
2022-10-23T10:14:06.319Z,100866.53
2022-10-23T10:16:47.040Z,100864.31
2022-10-23T10:19:31.548Z,100870.31
2022-10-23T10:22:13.527Z,100864.94
2022-10-23T10:25:04.582Z,100860.16
2022-10-23T10:28:00.588Z,100855.06
2022-10-23T10:31:01.148Z,100858.41
2022-10-23T10:34:00.902Z,100843.66
2022-10-23T10:36:43.549Z,100836.97
2022-10-23T10:39:39.756Z,100830.31
2022-10-23T10:42:13.920Z,100814.94
2022-10-23T10:44:46.242Z,100810.03
2022-10-23T10:47:18.542Z,100800.19
2022-10-23T10:50:13.924Z,100797.03
2022-10-23T10:53:04.626Z,100782.13
2022-10-23T10:55:42.138Z,100778.91
2022-10-23T10:58:24.016Z,100773.69
2022-10-23T11:00:58.487Z,100781.06
2022-10-23T11:03:37.609Z,100782.94
2022-10-23T11:06:15.888Z,100783.56
2022-10-23T11:08:57.230Z,100783.59
2022-10-23T11:11:31.687Z,100777.50
2022-10-23T11:14:01.434Z,100778.59
2022-10-23T11:16:36.588Z,100770.44
2022-10-23T11:19:14.082Z,100765.81
2022-10-23T11:21:59.045Z,100747.72
2022-10-23T11:24:58.303Z,100749.56
2022-10-23T11:28:03.608Z,100747.03
2022-10-23T11:30:43.499Z,100733.81
2022-10-23T11:33:44.712Z,100727.91
2022-10-23T11:36:39.966Z,100726.56
2022-10-23T11:39:29.490Z,100709.91
2022-10-23T11:42:08.633Z,100689.69
2022-10-23T11:44:45.291Z,100694.56
2022-10-23T11:47:40.533Z,100680.53
2022-10-23T11:50:10.057Z,100686.09
2022-10-23T11:52:50.620Z,100701.69
2022-10-23T11:55:24.326Z,100701.38
2022-10-23T11:58:10.128Z,100700.31
2022-10-23T12:00:52.765Z,100694.16
2022-10-23T12:03:25.375Z,100687.19
2022-10-23T12:06:07.190Z,100682.41
2022-10-23T12:08:42.616Z,100678.13
2022-10-23T12:11:43.279Z,100654.50
2022-10-23T12:14:35.672Z,100673.28
2022-10-23T12:17:06.200Z,100666.19
2022-10-23T12:19:51.721Z,100662.34
2022-10-23T12:22:22.832Z,100654.72
2022-10-23T12:25:02.201Z,100656.81
2022-10-23T12:27:34.883Z,100660.63
2022-10-23T12:30:16.251Z,100660.94
2022-10-23T12:33:10.464Z,100661.94
2022-10-23T12:35:55.070Z,100662.47
2022-10-23T12:38:32.462Z,100648.25
2022-10-23T12:41:37.401Z,100650.06
2022-10-23T12:44:08.454Z,100639.66
2022-10-23T12:46:42.262Z,100635.50
2022-10-23T12:49:18.234Z,100633.06
2022-10-23T12:51:48.626Z,100629.69
2022-10-23T12:54:19.812Z,100617.91
2022-10-23T12:56:49.780Z,100622.38
2022-10-23T12:59:39.286Z,100630.00
2022-10-23T13:02:28.898Z,100626.88
2022-10-23T13:05:01.110Z,100615.06
2022-10-23T13:07:35.281Z,100606.72
2022-10-23T13:10:07.487Z,100603.63
2022-10-23T13:12:41.272Z,100605.41
2022-10-23T13:15:11.000Z,100589.81
2022-10-23T13:17:45.165Z,100589.81
2022-10-23T13:20:20.776Z,100582.75
2022-10-23T13:22:55.241Z,100577.28
2022-10-23T13:25:31.608Z,100585.63
2022-10-23T13:28:35.887Z,100579.38
2022-10-23T13:31:08.331Z,100579.56
2022-10-23T13:33:49.033Z,100562.38
2022-10-23T13:36:18.760Z,100558.94
2022-10-23T13:39:01.275Z,100544.66
2022-10-23T13:41:33.572Z,100546.97
2022-10-23T13:44:02.816Z,100543.91
2022-10-23T13:46:35.432Z,100518.84
2022-10-23T13:49:04.700Z,100533.28
2022-10-23T13:51:47.590Z,100536.41
2022-10-23T13:54:23.934Z,100512.88
2022-10-23T13:56:53.688Z,100515.47
2022-10-23T13:59:23.177Z,100522.00
2022-10-23T14:01:53.542Z,100524.63
2022-10-23T14:04:23.995Z,100510.28
2022-10-23T14:07:00.668Z,100512.28
2022-10-23T14:09:30.175Z,100504.00
2022-10-23T14:12:00.738Z,100500.00
2022-10-23T14:14:30.007Z,100512.53
2022-10-23T14:17:02.008Z,100502.56
2022-10-23T14:19:34.328Z,100511.63
2022-10-23T14:22:03.960Z,100508.81
2022-10-23T14:24:33.224Z,100509.06
2022-10-23T14:27:02.982Z,100495.47
2022-10-23T14:29:33.111Z,100500.88
2022-10-23T14:32:02.950Z,100489.94
2022-10-23T14:34:33.004Z,100488.88
2022-10-23T14:37:08.735Z,100481.06
2022-10-23T14:39:38.644Z,100487.31
2022-10-23T14:42:07.969Z,100484.69
2022-10-23T14:47:26.578Z,100478.56
2022-10-23T14:49:56.252Z,100469.44
2022-10-23T14:52:26.546Z,100478.47
2022-10-23T14:54:58.091Z,100478.75
2022-10-23T14:57:30.207Z,100488.06
2022-10-23T15:00:02.057Z,100482.31
2022-10-23T15:02:31.340Z,100473.88
2022-10-23T15:05:00.714Z,100475.44
2022-10-23T15:07:29.986Z,100471.53
2022-10-23T15:10:02.114Z,100462.66
2022-10-23T15:12:31.381Z,100446.69
2022-10-23T15:15:00.670Z,100450.56
2022-10-23T15:17:29.961Z,100462.53
2022-10-23T15:20:00.143Z,100460.09
2022-10-23T15:22:30.242Z,100470.25
2022-10-23T15:25:01.382Z,100461.94
2022-10-23T15:27:30.661Z,100445.06
2022-10-23T15:30:00.011Z,100459.59
2022-10-23T15:32:31.980Z,100462.22
2022-10-23T15:35:01.275Z,100457.25
2022-10-23T15:37:30.649Z,100462.19
2022-10-23T15:40:02.357Z,100464.97
2022-10-23T15:42:34.979Z,100445.41
2022-10-23T15:45:04.172Z,100448.47
2022-10-23T15:47:33.479Z,100457.72
2022-10-23T15:50:02.780Z,100465.44
2022-10-23T15:52:32.220Z,100471.06
2022-10-23T15:55:01.532Z,100478.03
2022-10-23T15:57:31.291Z,100475.88
2022-10-23T16:00:00.720Z,100474.28
2022-10-23T16:02:30.224Z,100473.94
2022-10-23T16:05:01.827Z,100469.59
2022-10-23T16:07:31.244Z,100436.28
2022-10-23T16:10:00.736Z,100426.16
2022-10-23T16:12:30.294Z,100410.03
2022-10-23T16:14:59.663Z,100338.38
2022-10-23T16:17:28.916Z,100324.81
2022-10-23T16:20:00.879Z,100358.44
2022-10-23T16:22:30.171Z,100353.44
2022-10-23T16:24:59.705Z,100341.44
2022-10-23T16:27:29.014Z,100334.88
2022-10-23T16:29:59.679Z,100318.75
2022-10-23T16:32:29.036Z,100324.97
2022-10-23T16:35:00.818Z,100343.88
2022-10-23T16:37:39.425Z,100339.25
2022-10-23T16:40:14.403Z,100324.97
2022-10-23T16:43:03.164Z,100365.56
2022-10-23T16:45:37.830Z,100382.13
2022-10-23T16:48:07.513Z,100391.97
2022-10-23T16:50:36.870Z,100383.69
2022-10-23T16:53:06.198Z,100384.41
2022-10-23T16:55:35.481Z,100393.47
2022-10-23T16:58:04.830Z,100395.25
2022-10-23T17:00:35.277Z,100406.94
2022-10-23T17:03:06.312Z,100430.78
2022-10-23T17:05:37.311Z,100431.56
2022-10-23T17:08:06.688Z,100420.94
2022-10-23T17:10:36.036Z,100428.22
2022-10-23T17:13:05.315Z,100428.03
2022-10-23T17:15:34.733Z,100417.66
2022-10-23T17:18:04.048Z,100422.09
2022-10-23T17:20:33.367Z,100419.72
2022-10-23T17:23:02.649Z,100430.38
2022-10-23T17:25:31.943Z,100422.88
2022-10-23T17:28:01.188Z,100431.13
2022-10-23T17:30:30.440Z,100424.66
2022-10-23T17:33:02.168Z,100430.16
2022-10-23T17:35:31.519Z,100423.66
2022-10-23T17:38:01.045Z,100430.97
2022-10-23T17:40:35.618Z,100423.75
2022-10-23T17:43:05.149Z,100419.81
2022-10-23T17:45:39.573Z,100417.75
2022-10-23T17:48:09.166Z,100423.03
2022-10-23T17:50:38.555Z,100416.72
2022-10-23T17:53:08.105Z,100411.09
2022-10-23T17:55:42.489Z,100442.81
2022-10-23T17:58:11.781Z,100424.91
2022-10-23T18:00:41.242Z,100414.53
2022-10-23T18:03:10.537Z,100405.69
2022-10-23T18:08:29.571Z,100410.63
2022-10-23T18:10:58.866Z,100409.84
2022-10-23T18:13:29.590Z,100400.97
2022-10-23T18:16:04.239Z,100397.75
2022-10-23T18:18:33.578Z,100410.97
2022-10-23T18:21:04.253Z,100401.09
2022-10-23T18:23:34.494Z,100389.97
2022-10-23T18:26:05.706Z,100384.56
2022-10-23T18:28:35.204Z,100394.31
2022-10-23T18:31:04.515Z,100400.53
2022-10-23T18:33:33.815Z,100393.75
2022-10-23T18:36:03.102Z,100389.81
2022-10-23T18:38:33.368Z,100406.94
2022-10-23T18:41:02.619Z,100396.25
2022-10-23T18:43:43.347Z,100390.25
2022-10-23T18:46:17.141Z,100376.41
2022-10-23T18:48:47.163Z,100378.66
2022-10-23T18:51:31.179Z,100367.97
2022-10-23T18:54:03.279Z,100368.47
2022-10-23T18:56:35.775Z,100362.75
2022-10-23T18:59:07.853Z,100378.50
2022-10-23T19:01:37.813Z,100375.34
2022-10-23T19:04:08.128Z,100367.06
2022-10-23T19:06:38.859Z,100362.38
2022-10-23T19:09:10.171Z,100370.63
2022-10-23T19:11:42.382Z,100367.50
2022-10-23T19:14:12.667Z,100359.63
2022-10-23T19:16:53.565Z,100361.00
2022-10-23T19:19:27.427Z,100365.91
2022-10-23T19:22:00.282Z,100383.59
2022-10-23T19:24:35.893Z,100364.94
2022-10-23T19:27:05.423Z,100369.03
2022-10-23T19:29:35.444Z,100371.22
2022-10-23T19:32:04.730Z,100376.72
2022-10-23T19:34:34.066Z,100366.66
2022-10-23T19:37:03.684Z,100379.06
2022-10-23T19:39:33.489Z,100395.00
2022-10-23T19:42:03.207Z,100389.00
2022-10-23T19:44:32.718Z,100448.16
2022-10-23T19:47:02.710Z,100415.81
2022-10-23T19:49:31.973Z,100451.31
2022-10-23T19:52:01.300Z,100489.25
2022-10-23T19:54:30.636Z,100537.09
2022-10-23T19:57:00.035Z,100534.53
2022-10-23T19:59:29.392Z,100511.28
2022-10-23T20:01:58.870Z,100522.16
2022-10-23T20:04:28.941Z,100508.44
2022-10-23T20:06:59.083Z,100485.28
2022-10-23T20:09:28.455Z,100511.50
2022-10-23T20:11:57.740Z,100501.38
2022-10-23T20:14:27.079Z,100467.81
2022-10-23T20:16:56.698Z,100450.78
2022-10-23T20:19:26.403Z,100466.38
2022-10-23T20:21:56.062Z,100475.22
2022-10-23T20:24:25.592Z,100482.06
2022-10-23T20:26:57.137Z,100475.00
2022-10-23T20:29:27.650Z,100463.59
2022-10-23T20:31:57.253Z,100464.72
2022-10-23T20:34:26.560Z,100462.06
2022-10-23T20:36:56.323Z,100463.16
2022-10-23T20:39:29.722Z,100461.31
2022-10-23T20:42:00.345Z,100479.00
2022-10-23T20:44:29.633Z,100480.41
2022-10-23T20:46:59.181Z,100473.56
2022-10-23T20:49:28.482Z,100478.78
2022-10-23T20:51:59.070Z,100491.28
2022-10-23T20:54:29.770Z,100491.09
2022-10-23T20:56:59.658Z,100501.47
2022-10-23T20:59:29.011Z,100506.06
2022-10-23T21:01:58.685Z,100510.97
2022-10-23T21:04:30.484Z,100507.19
2022-10-23T21:07:16.430Z,100477.97
2022-10-23T21:09:45.727Z,100491.28
2022-10-23T21:12:15.117Z,100505.81
2022-10-23T21:14:44.374Z,100498.34
2022-10-23T21:17:17.071Z,100500.59
2022-10-23T21:19:46.381Z,100496.00
2022-10-23T21:22:15.699Z,100493.94
2022-10-23T21:24:44.978Z,100490.59
2022-10-23T21:27:15.185Z,100486.03
2022-10-23T21:29:44.627Z,100475.00
2022-10-23T21:32:13.909Z,100474.81
2022-10-23T21:34:43.216Z,100467.72
2022-10-23T21:37:14.173Z,100458.91
2022-10-23T21:39:45.646Z,100461.47
2022-10-23T21:42:16.679Z,100457.38
2022-10-23T21:44:46.038Z,100468.13
2022-10-23T21:47:16.083Z,100470.34
2022-10-23T21:49:45.396Z,100458.97
2022-10-23T21:52:17.580Z,100474.34
2022-10-23T21:54:49.027Z,100461.22
2022-10-23T21:57:18.372Z,100460.63
2022-10-23T21:59:48.375Z,100461.22
2022-10-23T22:02:17.904Z,100465.34
2022-10-23T22:04:47.331Z,100455.53
2022-10-23T22:07:16.764Z,100449.84
2022-10-23T22:09:46.736Z,100459.66
2022-10-23T22:12:16.070Z,100460.28
2022-10-23T22:14:45.436Z,100450.31
2022-10-23T22:17:14.771Z,100458.06
2022-10-23T22:19:44.286Z,100452.03
2022-10-23T22:22:13.653Z,100456.41
2022-10-23T22:24:42.997Z,100462.38
2022-10-23T22:27:12.391Z,100455.06
2022-10-23T22:29:41.781Z,100456.78
2022-10-23T22:32:11.155Z,100467.97
2022-10-23T22:34:52.287Z,100458.47
2022-10-23T22:37:22.790Z,100450.91
2022-10-23T22:39:55.467Z,100453.56
2022-10-23T22:42:24.759Z,100446.63
2022-10-23T22:44:54.223Z,100453.06
2022-10-23T22:47:23.561Z,100451.81
2022-10-23T22:49:52.865Z,100442.31
2022-10-23T22:52:22.614Z,100450.53
2022-10-23T22:54:51.951Z,100452.72
2022-10-23T22:57:21.291Z,100446.44
2022-10-23T22:59:50.590Z,100440.13
2022-10-23T23:02:19.875Z,100452.00
2022-10-23T23:04:49.206Z,100451.06
2022-10-23T23:07:18.489Z,100437.34
2022-10-23T23:09:47.985Z,100417.28
2022-10-23T23:12:17.649Z,100433.22
2022-10-23T23:14:46.948Z,100417.09
2022-10-23T23:17:16.274Z,100416.63
2022-10-23T23:19:45.547Z,100416.13
2022-10-23T23:22:14.852Z,100413.94
2022-10-23T23:24:44.198Z,100414.25
2022-10-23T23:27:13.614Z,100428.50
2022-10-23T23:29:42.910Z,100430.84
2022-10-23T23:32:13.448Z,100431.03
2022-10-23T23:34:42.707Z,100414.94
2022-10-23T23:37:12.024Z,100404.63
2022-10-23T23:39:41.314Z,100420.63
2022-10-23T23:42:10.681Z,100422.34
2022-10-23T23:44:50.232Z,100420.50
2022-10-23T23:47:29.286Z,100423.50
2022-10-23T23:49:58.676Z,100409.16
2022-10-23T23:52:28.009Z,100419.75
2022-10-23T23:54:57.472Z,100416.28
2022-10-23T23:57:26.741Z,100415.38
2022-10-23T23:59:56.246Z,100410.63
